F/V Pasiphae 2 — FMFN — position and weather

sailwx.info

Track history (hours):
 
Tides and Currents Weather Stations Pressure Air Temp Water Temp Dewpoint Dewpoint Depression Visibility Wind Speed Wind Dir Waves Ship Positions

F/V Pasiphae 2

Last reported at 2015-Jul-29 00:08 UTC. Time now 2015-Jul-29 02:41 UTC.
Position N 47°44' W 003°22'.

Length 14 m.

Type: Fishing. MMSI: 228224800.

Date/timePositionNaut miles runAvg speedWind from/ knotsBaromVisibWave heightAir tempDewpointWater temp
2015-Jul-29 00:08N 47°44' W 003°22'5 8.6
2015-Jul-28 23:33N 47°39' W 003°23'9 9.2
2015-Jul-28 22:33N 47°30' W 003°23'4 0.2
2015-Jul-28 03:33N 47°26' W 003°27'6 5.6
2015-Jul-28 02:33N 47°31' W 003°24'7 7.1
2015-Jul-28 01:33N 47°38' W 003°22'6 5.6
2015-Jul-28 00:33N 47°44' W 003°22'4 3.9
2015-Jul-27 23:33N 47°40' W 003°22'8 8.2
2015-Jul-27 22:33N 47°32' W 003°26'3 3.2
2015-Jul-27 21:33N 47°29' W 003°28'4 0.2
2015-Jul-27 03:33N 47°26' W 003°27'5 4.9
2015-Jul-27 02:33N 47°30' W 003°25'6 6.1
2015-Jul-27 01:33N 47°36' W 003°23'8 0.2
2015-Jul-25 00:08N 47°44' W 003°22'4 7.3
2015-Jul-24 23:33N 47°40' W 003°22'7 6.7
2015-Jul-24 22:33N 47°33' W 003°25'13 0.7
2015-Jul-24 03:33N 47°21' W 003°28'5 5.1
2015-Jul-24 02:33N 47°26' W 003°26'7 6.7
2015-Jul-24 01:33N 47°32' W 003°24'9 8.7
2015-Jul-24 00:33N 47°41' W 003°22'3 2.7
2015-Jul-23 23:33N 47°44' W 003°22'9 8.6
2015-Jul-23 22:33N 47°35' W 003°23'12 0.7
2015-Jul-23 03:33N 47°23' W 003°27'9 8.6
2015-Jul-23 02:33N 47°31' W 003°24'9 8.9
2015-Jul-23 01:33N 47°40' W 003°22'4 3.6
2015-Jul-23 00:33N 47°44' W 003°22'4 3.7
2015-Jul-22 23:33N 47°40' W 003°22'8 8.2
2015-Jul-22 22:33N 47°32' W 003°22'8 8.2
2015-Jul-22 21:33N 47°24' W 003°23'4 0.2
2015-Jul-22 03:11N 47°20' W 003°24'8 8.5
2015-Jul-22 02:13N 47°28' W 003°23'9 8.9
2015-Jul-22 01:09N 47°38' W 003°22'6 9.0
2015-Jul-22 00:32N 47°43' W 003°22'2 2.0
2015-Jul-21 23:34N 47°41' W 003°22'8 8.5
2015-Jul-21 22:34N 47°33' W 003°23'8 8.4
2015-Jul-21 21:34N 47°25' W 003°26'4 0.2
2015-Jul-21 03:33N 47°22' W 003°22'8 8.1
2015-Jul-21 02:34N 47°30' W 003°22'8 8.5
2015-Jul-21 01:34N 47°38' W 003°22'5 5.4
2015-Jul-21 00:33N 47°44' W 003°22'7 7.4
2015-Jul-20 23:34N 47°37' W 003°23'8 8.5
2015-Jul-20 22:33N 47°28' W 003°21'8 0.4
2015-Jul-20 03:33N 47°20' W 003°23'8 8.4
2015-Jul-20 02:33N 47°29' W 003°23'8 8.4
2015-Jul-20 01:33N 47°37' W 003°22'6 6.5
2015-Jul-20 00:33N 47°44' W 003°22'  
Track history (hours):
 
Tides and Currents Weather Stations Pressure Air Temp Water Temp Dewpoint Dewpoint Depression Visibility Wind Speed Wind Dir Waves Ship Positions

F/V Pasiphae 2

Last reported at 2015-Jul-29 00:08 UTC. Time now 2015-Jul-29 02:41 UTC.
Position N 47°44' W 003°22'.

Length 14 m.

Type: Fishing. MMSI: 228224800.

Date/timePositionNaut miles runAvg speedWind from/ knotsBaromVisibWave heightAir tempDewpointWater temp
2015-Jul-29 00:08N 47°44' W 003°22'5 8.6
2015-Jul-28 23:33N 47°39' W 003°23'9 9.2
2015-Jul-28 22:33N 47°30' W 003°23'4 0.2
2015-Jul-28 03:33N 47°26' W 003°27'6 5.6
2015-Jul-28 02:33N 47°31' W 003°24'7 7.1
2015-Jul-28 01:33N 47°38' W 003°22'6 5.6
2015-Jul-28 00:33N 47°44' W 003°22'4 3.9
2015-Jul-27 23:33N 47°40' W 003°22'8 8.2
2015-Jul-27 22:33N 47°32' W 003°26'3 3.2
2015-Jul-27 21:33N 47°29' W 003°28'4 0.2
2015-Jul-27 03:33N 47°26' W 003°27'5 4.9
2015-Jul-27 02:33N 47°30' W 003°25'6 6.1
2015-Jul-27 01:33N 47°36' W 003°23'8 0.2
2015-Jul-25 00:08N 47°44' W 003°22'4 7.3
2015-Jul-24 23:33N 47°40' W 003°22'7 6.7
2015-Jul-24 22:33N 47°33' W 003°25'13 0.7
2015-Jul-24 03:33N 47°21' W 003°28'5 5.1
2015-Jul-24 02:33N 47°26' W 003°26'7 6.7
2015-Jul-24 01:33N 47°32' W 003°24'9 8.7
2015-Jul-24 00:33N 47°41' W 003°22'3 2.7
2015-Jul-23 23:33N 47°44' W 003°22'9 8.6
2015-Jul-23 22:33N 47°35' W 003°23'12 0.7
2015-Jul-23 03:33N 47°23' W 003°27'9 8.6
2015-Jul-23 02:33N 47°31' W 003°24'9 8.9
2015-Jul-23 01:33N 47°40' W 003°22'4 3.6
2015-Jul-23 00:33N 47°44' W 003°22'4 3.7
2015-Jul-22 23:33N 47°40' W 003°22'8 8.2
2015-Jul-22 22:33N 47°32' W 003°22'8 8.2
2015-Jul-22 21:33N 47°24' W 003°23'4 0.2
2015-Jul-22 03:11N 47°20' W 003°24'8 8.5
2015-Jul-22 02:13N 47°28' W 003°23'9 8.9
2015-Jul-22 01:09N 47°38' W 003°22'6 9.0
2015-Jul-22 00:32N 47°43' W 003°22'2 2.0
2015-Jul-21 23:34N 47°41' W 003°22'8 8.5
2015-Jul-21 22:34N 47°33' W 003°23'8 8.4
2015-Jul-21 21:34N 47°25' W 003°26'4 0.2
2015-Jul-21 03:33N 47°22' W 003°22'8 8.1
2015-Jul-21 02:34N 47°30' W 003°22'8 8.5
2015-Jul-21 01:34N 47°38' W 003°22'5 5.4
2015-Jul-21 00:33N 47°44' W 003°22'7 7.4
2015-Jul-20 23:34N 47°37' W 003°23'8 8.5
2015-Jul-20 22:33N 47°28' W 003°21'8 0.4
2015-Jul-20 03:33N 47°20' W 003°23'8 8.4
2015-Jul-20 02:33N 47°29' W 003°23'8 8.4
2015-Jul-20 01:33N 47°37' W 003°22'6 6.5
2015-Jul-20 00:33N 47°44' W 003°22'  

Dump ship's entire track history